sensor_id;sensor_type;location;lat;lon;timestamp;P1;durP1;ratioP1;P2;durP2;ratioP2
74670;SDS011;63196;39.564;2.628;2022-11-15T00:00:32;10.80;;;3.90;;
74670;SDS011;63196;39.564;2.628;2022-11-15T00:02:57;5.90;;;3.10;;
74670;SDS011;63196;39.564;2.628;2022-11-15T00:05:23;8.10;;;3.70;;
74670;SDS011;63196;39.564;2.628;2022-11-15T00:07:49;11.00;;;3.90;;
74670;SDS011;63196;39.564;2.628;2022-11-15T00:10:14;12.60;;;5.10;;
74670;SDS011;63196;39.564;2.628;2022-11-15T00:12:39;8.80;;;4.30;;
74670;SDS011;63196;39.564;2.628;2022-11-15T00:15:05;12.60;;;5.50;;
74670;SDS011;63196;39.564;2.628;2022-11-15T00:17:30;8.30;;;3.80;;
74670;SDS011;63196;39.564;2.628;2022-11-15T00:19:56;11.00;;;3.40;;
74670;SDS011;63196;39.564;2.628;2022-11-15T00:22:21;11.20;;;4.00;;
74670;SDS011;63196;39.564;2.628;2022-11-15T00:24:47;13.70;;;3.90;;
74670;SDS011;63196;39.564;2.628;2022-11-15T00:27:12;9.80;;;3.40;;
74670;SDS011;63196;39.564;2.628;2022-11-15T00:29:38;13.10;;;4.40;;
74670;SDS011;63196;39.564;2.628;2022-11-15T00:32:04;13.70;;;4.20;;
74670;SDS011;63196;39.564;2.628;2022-11-15T00:34:29;13.00;;;4.50;;
74670;SDS011;63196;39.564;2.628;2022-11-15T00:36:54;12.60;;;4.40;;
74670;SDS011;63196;39.564;2.628;2022-11-15T00:39:20;13.20;;;4.30;;
74670;SDS011;63196;39.564;2.628;2022-11-15T00:41:45;12.80;;;4.30;;
74670;SDS011;63196;39.564;2.628;2022-11-15T00:44:10;15.40;;;4.20;;
74670;SDS011;63196;39.564;2.628;2022-11-15T00:46:36;13.50;;;3.70;;
74670;SDS011;63196;39.564;2.628;2022-11-15T00:49:01;9.20;;;3.70;;
74670;SDS011;63196;39.564;2.628;2022-11-15T00:51:27;12.60;;;4.20;;
74670;SDS011;63196;39.564;2.628;2022-11-15T00:53:52;8.30;;;3.50;;
74670;SDS011;63196;39.564;2.628;2022-11-15T00:56:17;9.00;;;3.30;;
74670;SDS011;63196;39.564;2.628;2022-11-15T00:58:43;12.20;;;3.90;;
74670;SDS011;63196;39.564;2.628;2022-11-15T01:01:12;11.10;;;4.00;;
74670;SDS011;63196;39.564;2.628;2022-11-15T01:03:38;13.70;;;4.20;;
74670;SDS011;63196;39.564;2.628;2022-11-15T01:06:04;9.90;;;4.00;;
74670;SDS011;63196;39.564;2.628;2022-11-15T01:08:30;10.90;;;4.60;;
74670;SDS011;63196;39.564;2.628;2022-11-15T01:10:59;10.70;;;4.10;;
74670;SDS011;63196;39.564;2.628;2022-11-15T01:13:25;14.70;;;5.20;;
74670;SDS011;63196;39.564;2.628;2022-11-15T01:15:50;11.30;;;4.30;;
74670;SDS011;63196;39.564;2.628;2022-11-15T01:18:15;10.00;;;3.80;;
74670;SDS011;63196;39.564;2.628;2022-11-15T01:20:41;9.50;;;4.70;;
74670;SDS011;63196;39.564;2.628;2022-11-15T01:23:07;17.50;;;6.20;;
74670;SDS011;63196;39.564;2.628;2022-11-15T01:25:32;12.70;;;3.90;;
74670;SDS011;63196;39.564;2.628;2022-11-15T01:27:58;13.30;;;5.70;;
74670;SDS011;63196;39.564;2.628;2022-11-15T01:30:23;11.60;;;4.00;;
74670;SDS011;63196;39.564;2.628;2022-11-15T01:32:48;15.80;;;6.30;;
74670;SDS011;63196;39.564;2.628;2022-11-15T01:35:14;9.60;;;4.00;;
74670;SDS011;63196;39.564;2.628;2022-11-15T01:37:39;8.30;;;3.70;;
74670;SDS011;63196;39.564;2.628;2022-11-15T01:40:04;12.20;;;4.60;;
74670;SDS011;63196;39.564;2.628;2022-11-15T01:42:30;15.80;;;4.90;;
74670;SDS011;63196;39.564;2.628;2022-11-15T01:44:55;10.80;;;4.00;;
74670;SDS011;63196;39.564;2.628;2022-11-15T01:47:25;10.70;;;4.10;;
74670;SDS011;63196;39.564;2.628;2022-11-15T01:49:57;12.00;;;4.30;;
74670;SDS011;63196;39.564;2.628;2022-11-15T01:52:25;10.50;;;3.80;;
74670;SDS011;63196;39.564;2.628;2022-11-15T01:57:35;15.90;;;4.40;;
74670;SDS011;63196;39.564;2.628;2022-11-15T02:00:01;10.10;;;3.70;;
74670;SDS011;63196;39.564;2.628;2022-11-15T02:02:28;13.00;;;4.70;;
74670;SDS011;63196;39.564;2.628;2022-11-15T02:04:53;13.80;;;5.50;;
74670;SDS011;63196;39.564;2.628;2022-11-15T02:07:19;11.90;;;5.00;;
74670;SDS011;63196;39.564;2.628;2022-11-15T02:09:45;15.30;;;5.90;;
74670;SDS011;63196;39.564;2.628;2022-11-15T02:12:10;10.10;;;5.00;;
74670;SDS011;63196;39.564;2.628;2022-11-15T02:14:38;11.40;;;4.20;;
74670;SDS011;63196;39.564;2.628;2022-11-15T02:37:47;12.30;;;4.60;;
74670;SDS011;63196;39.564;2.628;2022-11-15T02:42:59;12.00;;;4.30;;
74670;SDS011;63196;39.564;2.628;2022-11-15T02:45:48;15.70;;;4.60;;
74670;SDS011;63196;39.564;2.628;2022-11-15T02:48:15;19.40;;;5.60;;
74670;SDS011;63196;39.564;2.628;2022-11-15T02:50:42;11.80;;;4.50;;
74670;SDS011;63196;39.564;2.628;2022-11-15T02:53:08;14.30;;;5.30;;
74670;SDS011;63196;39.564;2.628;2022-11-15T02:55:37;11.90;;;4.10;;
74670;SDS011;63196;39.564;2.628;2022-11-15T03:00:34;9.50;;;4.30;;
74670;SDS011;63196;39.564;2.628;2022-11-15T03:03:16;16.80;;;5.80;;
74670;SDS011;63196;39.564;2.628;2022-11-15T03:05:47;13.10;;;5.10;;
74670;SDS011;63196;39.564;2.628;2022-11-15T03:08:34;12.20;;;5.70;;
74670;SDS011;63196;39.564;2.628;2022-11-15T03:13:39;14.50;;;3.80;;
74670;SDS011;63196;39.564;2.628;2022-11-15T03:18:33;12.20;;;4.70;;
74670;SDS011;63196;39.564;2.628;2022-11-15T03:21:00;12.30;;;5.10;;
74670;SDS011;63196;39.564;2.628;2022-11-15T03:23:28;10.90;;;5.00;;
74670;SDS011;63196;39.564;2.628;2022-11-15T03:25:55;10.80;;;4.60;;
74670;SDS011;63196;39.564;2.628;2022-11-15T03:28:25;16.10;;;5.10;;
74670;SDS011;63196;39.564;2.628;2022-11-15T03:30:53;11.60;;;3.20;;
74670;SDS011;63196;39.564;2.628;2022-11-15T03:33:20;9.80;;;3.90;;
74670;SDS011;63196;39.564;2.628;2022-11-15T03:35:46;9.90;;;4.00;;
74670;SDS011;63196;39.564;2.628;2022-11-15T03:40:42;15.00;;;5.50;;
74670;SDS011;63196;39.564;2.628;2022-11-15T03:45:54;14.90;;;4.60;;
74670;SDS011;63196;39.564;2.628;2022-11-15T03:48:22;9.00;;;4.20;;
74670;SDS011;63196;39.564;2.628;2022-11-15T03:50:49;14.70;;;4.90;;
74670;SDS011;63196;39.564;2.628;2022-11-15T03:53:14;12.80;;;4.60;;
74670;SDS011;63196;39.564;2.628;2022-11-15T03:55:40;15.90;;;5.70;;
74670;SDS011;63196;39.564;2.628;2022-11-15T03:58:05;15.00;;;5.30;;
74670;SDS011;63196;39.564;2.628;2022-11-15T04:00:31;13.10;;;5.10;;
74670;SDS011;63196;39.564;2.628;2022-11-15T04:02:56;13.40;;;4.80;;
74670;SDS011;63196;39.564;2.628;2022-11-15T04:05:22;17.80;;;5.20;;
74670;SDS011;63196;39.564;2.628;2022-11-15T04:07:47;13.70;;;4.50;;
74670;SDS011;63196;39.564;2.628;2022-11-15T04:10:13;12.60;;;5.20;;
74670;SDS011;63196;39.564;2.628;2022-11-15T04:12:39;15.70;;;5.40;;
74670;SDS011;63196;39.564;2.628;2022-11-15T04:17:36;9.30;;;4.10;;
74670;SDS011;63196;39.564;2.628;2022-11-15T04:20:03;11.70;;;5.10;;
74670;SDS011;63196;39.564;2.628;2022-11-15T04:22:47;14.60;;;4.40;;
74670;SDS011;63196;39.564;2.628;2022-11-15T04:25:33;17.40;;;5.00;;
74670;SDS011;63196;39.564;2.628;2022-11-15T04:30:24;11.90;;;4.70;;
74670;SDS011;63196;39.564;2.628;2022-11-15T04:32:50;12.70;;;4.60;;
74670;SDS011;63196;39.564;2.628;2022-11-15T04:35:15;11.30;;;3.60;;
74670;SDS011;63196;39.564;2.628;2022-11-15T04:37:41;11.50;;;4.50;;
74670;SDS011;63196;39.564;2.628;2022-11-15T04:40:06;16.60;;;5.60;;
74670;SDS011;63196;39.564;2.628;2022-11-15T04:42:32;11.50;;;4.10;;
74670;SDS011;63196;39.564;2.628;2022-11-15T04:44:57;8.90;;;4.10;;
74670;SDS011;63196;39.564;2.628;2022-11-15T04:47:23;9.80;;;4.50;;
74670;SDS011;63196;39.564;2.628;2022-11-15T04:49:48;10.70;;;3.40;;
74670;SDS011;63196;39.564;2.628;2022-11-15T04:52:13;7.20;;;3.80;;
74670;SDS011;63196;39.564;2.628;2022-11-15T04:54:39;10.60;;;3.50;;
74670;SDS011;63196;39.564;2.628;2022-11-15T04:57:04;13.00;;;4.80;;
74670;SDS011;63196;39.564;2.628;2022-11-15T04:59:30;12.40;;;4.10;;
74670;SDS011;63196;39.564;2.628;2022-11-15T05:01:55;10.50;;;4.00;;
74670;SDS011;63196;39.564;2.628;2022-11-15T05:04:20;7.00;;;3.30;;
74670;SDS011;63196;39.564;2.628;2022-11-15T05:06:49;8.40;;;3.50;;
74670;SDS011;63196;39.564;2.628;2022-11-15T05:09:15;13.90;;;4.50;;
74670;SDS011;63196;39.564;2.628;2022-11-15T05:11:41;10.70;;;4.10;;
74670;SDS011;63196;39.564;2.628;2022-11-15T05:14:06;13.10;;;4.50;;
74670;SDS011;63196;39.564;2.628;2022-11-15T05:16:32;8.20;;;3.80;;
74670;SDS011;63196;39.564;2.628;2022-11-15T05:18:57;9.50;;;4.60;;
74670;SDS011;63196;39.564;2.628;2022-11-15T05:21:22;16.40;;;5.50;;
74670;SDS011;63196;39.564;2.628;2022-11-15T05:23:48;11.20;;;3.70;;
74670;SDS011;63196;39.564;2.628;2022-11-15T05:26:14;13.50;;;4.20;;
74670;SDS011;63196;39.564;2.628;2022-11-15T05:28:40;12.30;;;3.50;;
74670;SDS011;63196;39.564;2.628;2022-11-15T05:33:31;10.20;;;3.90;;
74670;SDS011;63196;39.564;2.628;2022-11-15T05:36:19;11.20;;;4.00;;
74670;SDS011;63196;39.564;2.628;2022-11-15T05:38:45;14.00;;;5.60;;
74670;SDS011;63196;39.564;2.628;2022-11-15T05:41:13;13.30;;;4.80;;
74670;SDS011;63196;39.564;2.628;2022-11-15T05:43:39;10.60;;;4.20;;
74670;SDS011;63196;39.564;2.628;2022-11-15T05:46:05;12.90;;;4.40;;
74670;SDS011;63196;39.564;2.628;2022-11-15T05:48:31;6.40;;;3.80;;
74670;SDS011;63196;39.564;2.628;2022-11-15T05:50:57;10.20;;;4.30;;
74670;SDS011;63196;39.564;2.628;2022-11-15T05:53:23;7.50;;;3.60;;
74670;SDS011;63196;39.564;2.628;2022-11-15T05:55:50;8.30;;;3.30;;
74670;SDS011;63196;39.564;2.628;2022-11-15T05:58:15;7.80;;;3.00;;
74670;SDS011;63196;39.564;2.628;2022-11-15T06:00:41;7.60;;;3.00;;
74670;SDS011;63196;39.564;2.628;2022-11-15T06:03:08;11.20;;;4.80;;
74670;SDS011;63196;39.564;2.628;2022-11-15T06:05:33;7.70;;;3.10;;
74670;SDS011;63196;39.564;2.628;2022-11-15T06:07:59;13.80;;;4.10;;
74670;SDS011;63196;39.564;2.628;2022-11-15T06:10:24;8.00;;;3.10;;
74670;SDS011;63196;39.564;2.628;2022-11-15T06:12:56;8.30;;;3.00;;
74670;SDS011;63196;39.564;2.628;2022-11-15T06:15:22;8.10;;;3.70;;
74670;SDS011;63196;39.564;2.628;2022-11-15T06:17:47;10.30;;;3.70;;
74670;SDS011;63196;39.564;2.628;2022-11-15T06:20:13;11.00;;;3.70;;
74670;SDS011;63196;39.564;2.628;2022-11-15T06:22:38;9.90;;;2.80;;
74670;SDS011;63196;39.564;2.628;2022-11-15T06:25:03;9.50;;;3.70;;
74670;SDS011;63196;39.564;2.628;2022-11-15T06:27:29;12.10;;;3.40;;
74670;SDS011;63196;39.564;2.628;2022-11-15T06:29:54;11.60;;;4.50;;
74670;SDS011;63196;39.564;2.628;2022-11-15T06:32:20;8.00;;;3.10;;
74670;SDS011;63196;39.564;2.628;2022-11-15T06:34:45;9.20;;;3.90;;
74670;SDS011;63196;39.564;2.628;2022-11-15T06:37:10;8.30;;;3.10;;
74670;SDS011;63196;39.564;2.628;2022-11-15T06:39:36;7.30;;;3.40;;
74670;SDS011;63196;39.564;2.628;2022-11-15T06:42:01;10.70;;;3.60;;
74670;SDS011;63196;39.564;2.628;2022-11-15T06:44:26;12.20;;;3.80;;
74670;SDS011;63196;39.564;2.628;2022-11-15T06:46:52;8.00;;;3.40;;
74670;SDS011;63196;39.564;2.628;2022-11-15T06:49:17;13.70;;;3.80;;
74670;SDS011;63196;39.564;2.628;2022-11-15T06:51:42;12.10;;;3.50;;
74670;SDS011;63196;39.564;2.628;2022-11-15T06:54:08;8.70;;;3.40;;
74670;SDS011;63196;39.564;2.628;2022-11-15T06:56:33;10.90;;;3.60;;
74670;SDS011;63196;39.564;2.628;2022-11-15T06:58:58;9.80;;;3.50;;
74670;SDS011;63196;39.564;2.628;2022-11-15T07:01:24;7.60;;;3.00;;
74670;SDS011;63196;39.564;2.628;2022-11-15T07:03:49;9.30;;;3.50;;
74670;SDS011;63196;39.564;2.628;2022-11-15T07:06:15;10.10;;;3.00;;
74670;SDS011;63196;39.564;2.628;2022-11-15T07:08:40;10.40;;;3.10;;
74670;SDS011;63196;39.564;2.628;2022-11-15T07:11:07;13.70;;;5.20;;
74670;SDS011;63196;39.564;2.628;2022-11-15T07:13:33;6.70;;;3.00;;
74670;SDS011;63196;39.564;2.628;2022-11-15T07:16:03;12.00;;;4.20;;
74670;SDS011;63196;39.564;2.628;2022-11-15T07:18:28;11.40;;;2.80;;
74670;SDS011;63196;39.564;2.628;2022-11-15T07:20:54;8.30;;;4.00;;
74670;SDS011;63196;39.564;2.628;2022-11-15T07:23:20;7.10;;;3.40;;
74670;SDS011;63196;39.564;2.628;2022-11-15T07:25:45;9.90;;;3.70;;
74670;SDS011;63196;39.564;2.628;2022-11-15T07:28:11;9.50;;;3.80;;
74670;SDS011;63196;39.564;2.628;2022-11-15T07:30:36;9.20;;;3.90;;
74670;SDS011;63196;39.564;2.628;2022-11-15T07:33:02;7.50;;;2.80;;
74670;SDS011;63196;39.564;2.628;2022-11-15T07:35:27;7.70;;;3.20;;
74670;SDS011;63196;39.564;2.628;2022-11-15T07:37:54;12.80;;;3.80;;
74670;SDS011;63196;39.564;2.628;2022-11-15T07:40:20;12.50;;;3.90;;
74670;SDS011;63196;39.564;2.628;2022-11-15T07:42:45;6.80;;;2.40;;
74670;SDS011;63196;39.564;2.628;2022-11-15T07:45:21;11.00;;;3.40;;
74670;SDS011;63196;39.564;2.628;2022-11-15T07:47:47;7.80;;;3.80;;
74670;SDS011;63196;39.564;2.628;2022-11-15T07:50:13;7.30;;;3.20;;
74670;SDS011;63196;39.564;2.628;2022-11-15T07:52:38;10.80;;;4.00;;
74670;SDS011;63196;39.564;2.628;2022-11-15T07:55:04;9.40;;;3.10;;
74670;SDS011;63196;39.564;2.628;2022-11-15T07:57:29;8.30;;;2.40;;
74670;SDS011;63196;39.564;2.628;2022-11-15T07:59:55;8.40;;;2.90;;
74670;SDS011;63196;39.564;2.628;2022-11-15T08:02:20;6.50;;;2.60;;
74670;SDS011;63196;39.564;2.628;2022-11-15T08:04:45;5.40;;;2.50;;
74670;SDS011;63196;39.564;2.628;2022-11-15T08:07:11;8.60;;;2.30;;
74670;SDS011;63196;39.564;2.628;2022-11-15T08:09:36;14.70;;;2.90;;
74670;SDS011;63196;39.564;2.628;2022-11-15T08:12:01;7.60;;;2.50;;
74670;SDS011;63196;39.564;2.628;2022-11-15T08:14:27;4.80;;;2.10;;
74670;SDS011;63196;39.564;2.628;2022-11-15T08:16:53;7.70;;;2.20;;
74670;SDS011;63196;39.564;2.628;2022-11-15T08:19:19;11.70;;;3.20;;
74670;SDS011;63196;39.564;2.628;2022-11-15T08:21:45;6.20;;;2.80;;
74670;SDS011;63196;39.564;2.628;2022-11-15T08:24:10;8.00;;;2.80;;
74670;SDS011;63196;39.564;2.628;2022-11-15T08:26:36;7.70;;;2.60;;
74670;SDS011;63196;39.564;2.628;2022-11-15T08:29:01;6.10;;;2.10;;
74670;SDS011;63196;39.564;2.628;2022-11-15T08:31:27;6.70;;;2.50;;
74670;SDS011;63196;39.564;2.628;2022-11-15T08:33:52;8.30;;;2.50;;
74670;SDS011;63196;39.564;2.628;2022-11-15T08:36:17;5.70;;;2.00;;
74670;SDS011;63196;39.564;2.628;2022-11-15T08:38:43;8.60;;;2.90;;
74670;SDS011;63196;39.564;2.628;2022-11-15T08:41:10;6.20;;;2.00;;
74670;SDS011;63196;39.564;2.628;2022-11-15T08:43:37;6.00;;;2.10;;
74670;SDS011;63196;39.564;2.628;2022-11-15T08:46:02;8.30;;;2.80;;
74670;SDS011;63196;39.564;2.628;2022-11-15T08:48:27;6.90;;;2.10;;
74670;SDS011;63196;39.564;2.628;2022-11-15T08:50:56;6.00;;;2.50;;
74670;SDS011;63196;39.564;2.628;2022-11-15T08:53:21;8.00;;;2.80;;
74670;SDS011;63196;39.564;2.628;2022-11-15T08:55:47;8.10;;;2.90;;
74670;SDS011;63196;39.564;2.628;2022-11-15T08:58:12;8.10;;;2.90;;
74670;SDS011;63196;39.564;2.628;2022-11-15T09:00:38;5.30;;;2.10;;
74670;SDS011;63196;39.564;2.628;2022-11-15T09:03:06;11.50;;;3.20;;
74670;SDS011;63196;39.564;2.628;2022-11-15T09:05:32;7.00;;;2.30;;
74670;SDS011;63196;39.564;2.628;2022-11-15T09:07:57;7.40;;;2.60;;
74670;SDS011;63196;39.564;2.628;2022-11-15T09:10:22;11.90;;;3.50;;
74670;SDS011;63196;39.564;2.628;2022-11-15T09:12:49;7.70;;;2.50;;
74670;SDS011;63196;39.564;2.628;2022-11-15T09:15:15;7.90;;;2.60;;
74670;SDS011;63196;39.564;2.628;2022-11-15T09:17:40;8.10;;;2.60;;
74670;SDS011;63196;39.564;2.628;2022-11-15T09:20:06;10.00;;;2.50;;
74670;SDS011;63196;39.564;2.628;2022-11-15T09:22:31;8.20;;;2.40;;
74670;SDS011;63196;39.564;2.628;2022-11-15T09:24:57;8.70;;;2.60;;
74670;SDS011;63196;39.564;2.628;2022-11-15T09:27:22;7.80;;;3.00;;
74670;SDS011;63196;39.564;2.628;2022-11-15T09:29:48;9.80;;;3.50;;
74670;SDS011;63196;39.564;2.628;2022-11-15T09:32:13;8.40;;;2.50;;
74670;SDS011;63196;39.564;2.628;2022-11-15T09:34:38;7.70;;;2.20;;
74670;SDS011;63196;39.564;2.628;2022-11-15T09:37:04;10.70;;;2.60;;
74670;SDS011;63196;39.564;2.628;2022-11-15T09:39:29;9.50;;;2.50;;
74670;SDS011;63196;39.564;2.628;2022-11-15T09:47:35;4.70;;;1.60;;
74670;SDS011;63196;39.564;2.628;2022-11-15T09:50:11;4.60;;;1.60;;
74670;SDS011;63196;39.564;2.628;2022-11-15T09:52:36;5.30;;;1.90;;
74670;SDS011;63196;39.564;2.628;2022-11-15T09:57:36;6.90;;;1.90;;
74670;SDS011;63196;39.564;2.628;2022-11-15T10:05:10;7.60;;;1.90;;
74670;SDS011;63196;39.564;2.628;2022-11-15T10:12:47;5.90;;;1.80;;
74670;SDS011;63196;39.564;2.628;2022-11-15T10:22:50;4.70;;;1.40;;
74670;SDS011;63196;39.564;2.628;2022-11-15T10:27:41;4.60;;;1.30;;
74670;SDS011;63196;39.564;2.628;2022-11-15T10:30:12;4.10;;;1.30;;
74670;SDS011;63196;39.564;2.628;2022-11-15T10:32:39;5.00;;;1.30;;
74670;SDS011;63196;39.564;2.628;2022-11-15T10:35:15;4.70;;;1.50;;
74670;SDS011;63196;39.564;2.628;2022-11-15T10:37:41;8.20;;;1.50;;
74670;SDS011;63196;39.564;2.628;2022-11-15T10:40:14;5.10;;;1.50;;
74670;SDS011;63196;39.564;2.628;2022-11-15T10:45:22;5.10;;;1.50;;
74670;SDS011;63196;39.564;2.628;2022-11-15T10:47:48;5.60;;;1.60;;
74670;SDS011;63196;39.564;2.628;2022-11-15T10:50:27;6.40;;;2.30;;
74670;SDS011;63196;39.564;2.628;2022-11-15T10:52:52;8.00;;;2.00;;
74670;SDS011;63196;39.564;2.628;2022-11-15T10:55:25;7.70;;;2.70;;
74670;SDS011;63196;39.564;2.628;2022-11-15T10:57:54;9.70;;;3.70;;
74670;SDS011;63196;39.564;2.628;2022-11-15T11:03:22;11.90;;;2.90;;
74670;SDS011;63196;39.564;2.628;2022-11-15T11:08:02;8.20;;;2.70;;
74670;SDS011;63196;39.564;2.628;2022-11-15T11:10:27;10.50;;;3.60;;
74670;SDS011;63196;39.564;2.628;2022-11-15T11:12:53;10.70;;;3.40;;
74670;SDS011;63196;39.564;2.628;2022-11-15T11:15:18;12.00;;;3.80;;
74670;SDS011;63196;39.564;2.628;2022-11-15T11:23:05;10.00;;;2.50;;
74670;SDS011;63196;39.564;2.628;2022-11-15T11:28:23;11.10;;;3.10;;
74670;SDS011;63196;39.564;2.628;2022-11-15T11:30:57;7.70;;;2.60;;
74670;SDS011;63196;39.564;2.628;2022-11-15T11:33:38;6.90;;;2.60;;
74670;SDS011;63196;39.564;2.628;2022-11-15T11:46:55;8.30;;;2.40;;
74670;SDS011;63196;39.564;2.628;2022-11-15T11:49:25;9.80;;;2.90;;
74670;SDS011;63196;39.564;2.628;2022-11-15T11:56:56;6.30;;;2.10;;
74670;SDS011;63196;39.564;2.628;2022-11-15T12:02:01;6.90;;;2.60;;
74670;SDS011;63196;39.564;2.628;2022-11-15T12:04:36;11.30;;;3.30;;
74670;SDS011;63196;39.564;2.628;2022-11-15T12:07:05;7.10;;;2.80;;
74670;SDS011;63196;39.564;2.628;2022-11-15T12:09:35;9.10;;;2.60;;
74670;SDS011;63196;39.564;2.628;2022-11-15T12:14:56;8.00;;;2.90;;
74670;SDS011;63196;39.564;2.628;2022-11-15T12:17:23;6.40;;;2.40;;
74670;SDS011;63196;39.564;2.628;2022-11-15T12:19:49;9.00;;;2.40;;
74670;SDS011;63196;39.564;2.628;2022-11-15T12:22:19;7.80;;;2.60;;
74670;SDS011;63196;39.564;2.628;2022-11-15T12:24:57;7.00;;;2.30;;
74670;SDS011;63196;39.564;2.628;2022-11-15T12:29:56;10.50;;;2.40;;
74670;SDS011;63196;39.564;2.628;2022-11-15T12:32:30;7.90;;;2.50;;
74670;SDS011;63196;39.564;2.628;2022-11-15T12:34:56;7.00;;;2.40;;
74670;SDS011;63196;39.564;2.628;2022-11-15T12:40:19;7.50;;;2.20;;
74670;SDS011;63196;39.564;2.628;2022-11-15T12:53:26;8.40;;;2.60;;
74670;SDS011;63196;39.564;2.628;2022-11-15T12:56:34;10.10;;;3.10;;
74670;SDS011;63196;39.564;2.628;2022-11-15T13:01:55;8.30;;;2.60;;
74670;SDS011;63196;39.564;2.628;2022-11-15T13:06:46;3.10;;;1.30;;
74670;SDS011;63196;39.564;2.628;2022-11-15T13:17:02;12.00;;;2.60;;
74670;SDS011;63196;39.564;2.628;2022-11-15T13:19:27;9.20;;;3.30;;
74670;SDS011;63196;39.564;2.628;2022-11-15T13:21:53;9.30;;;3.40;;
74670;SDS011;63196;39.564;2.628;2022-11-15T13:24:38;4.00;;;2.00;;
74670;SDS011;63196;39.564;2.628;2022-11-15T13:27:10;7.60;;;1.80;;
74670;SDS011;63196;39.564;2.628;2022-11-15T13:29:42;5.90;;;2.00;;
74670;SDS011;63196;39.564;2.628;2022-11-15T13:32:10;11.70;;;2.80;;
74670;SDS011;63196;39.564;2.628;2022-11-15T13:34:38;7.30;;;1.90;;
74670;SDS011;63196;39.564;2.628;2022-11-15T13:37:03;6.90;;;1.60;;
74670;SDS011;63196;39.564;2.628;2022-11-15T13:39:30;5.50;;;1.90;;
74670;SDS011;63196;39.564;2.628;2022-11-15T13:44:23;4.10;;;1.20;;
74670;SDS011;63196;39.564;2.628;2022-11-15T13:46:48;4.20;;;1.70;;
74670;SDS011;63196;39.564;2.628;2022-11-15T13:49:14;4.40;;;1.40;;
74670;SDS011;63196;39.564;2.628;2022-11-15T13:51:52;3.30;;;1.10;;
74670;SDS011;63196;39.564;2.628;2022-11-15T13:54:35;4.00;;;1.30;;
74670;SDS011;63196;39.564;2.628;2022-11-15T13:57:03;4.40;;;1.20;;
74670;SDS011;63196;39.564;2.628;2022-11-15T13:59:31;6.60;;;1.40;;
74670;SDS011;63196;39.564;2.628;2022-11-15T14:02:03;5.80;;;1.80;;
74670;SDS011;63196;39.564;2.628;2022-11-15T14:04:38;3.40;;;1.30;;
74670;SDS011;63196;39.564;2.628;2022-11-15T14:07:04;7.80;;;1.50;;
74670;SDS011;63196;39.564;2.628;2022-11-15T14:11:56;6.20;;;1.70;;
74670;SDS011;63196;39.564;2.628;2022-11-15T14:14:25;4.60;;;1.30;;
74670;SDS011;63196;39.564;2.628;2022-11-15T14:16:52;6.40;;;1.80;;
74670;SDS011;63196;39.564;2.628;2022-11-15T14:24:31;6.20;;;2.10;;
74670;SDS011;63196;39.564;2.628;2022-11-15T14:26:56;5.90;;;1.40;;
74670;SDS011;63196;39.564;2.628;2022-11-15T14:29:25;6.50;;;2.00;;
74670;SDS011;63196;39.564;2.628;2022-11-15T14:31:51;6.30;;;2.40;;
74670;SDS011;63196;39.564;2.628;2022-11-15T14:34:16;8.30;;;2.50;;
74670;SDS011;63196;39.564;2.628;2022-11-15T14:36:42;7.90;;;2.50;;
74670;SDS011;63196;39.564;2.628;2022-11-15T14:39:07;10.90;;;2.50;;
74670;SDS011;63196;39.564;2.628;2022-11-15T14:41:36;7.90;;;2.70;;
74670;SDS011;63196;39.564;2.628;2022-11-15T14:44:05;8.60;;;3.10;;
74670;SDS011;63196;39.564;2.628;2022-11-15T14:46:31;10.80;;;3.30;;
74670;SDS011;63196;39.564;2.628;2022-11-15T14:48:56;7.70;;;3.10;;
74670;SDS011;63196;39.564;2.628;2022-11-15T14:51:22;7.70;;;2.70;;
74670;SDS011;63196;39.564;2.628;2022-11-15T14:53:47;7.80;;;3.30;;
74670;SDS011;63196;39.564;2.628;2022-11-15T14:56:13;13.50;;;3.80;;
74670;SDS011;63196;39.564;2.628;2022-11-15T14:58:39;9.50;;;2.90;;
74670;SDS011;63196;39.564;2.628;2022-11-15T15:01:15;11.20;;;4.30;;
74670;SDS011;63196;39.564;2.628;2022-11-15T15:03:42;13.60;;;4.10;;
74670;SDS011;63196;39.564;2.628;2022-11-15T15:06:09;15.10;;;4.40;;
74670;SDS011;63196;39.564;2.628;2022-11-15T15:08:34;12.50;;;3.70;;
74670;SDS011;63196;39.564;2.628;2022-11-15T15:11:00;11.70;;;4.00;;
74670;SDS011;63196;39.564;2.628;2022-11-15T15:13:25;7.40;;;2.70;;
74670;SDS011;63196;39.564;2.628;2022-11-15T15:15:51;9.20;;;2.80;;
74670;SDS011;63196;39.564;2.628;2022-11-15T15:18:17;7.50;;;2.90;;
74670;SDS011;63196;39.564;2.628;2022-11-15T15:20:43;11.90;;;3.00;;
74670;SDS011;63196;39.564;2.628;2022-11-15T15:23:17;10.30;;;3.00;;
74670;SDS011;63196;39.564;2.628;2022-11-15T15:25:42;9.40;;;3.30;;
74670;SDS011;63196;39.564;2.628;2022-11-15T15:28:08;8.20;;;3.30;;
74670;SDS011;63196;39.564;2.628;2022-11-15T15:30:34;7.00;;;2.60;;
74670;SDS011;63196;39.564;2.628;2022-11-15T15:33:00;10.30;;;3.50;;
74670;SDS011;63196;39.564;2.628;2022-11-15T15:35:29;8.90;;;2.90;;
74670;SDS011;63196;39.564;2.628;2022-11-15T15:37:55;12.40;;;3.30;;
74670;SDS011;63196;39.564;2.628;2022-11-15T15:40:24;13.00;;;4.10;;
74670;SDS011;63196;39.564;2.628;2022-11-15T15:42:50;9.00;;;3.30;;
74670;SDS011;63196;39.564;2.628;2022-11-15T15:45:16;9.90;;;2.80;;
74670;SDS011;63196;39.564;2.628;2022-11-15T15:47:42;10.60;;;3.80;;
74670;SDS011;63196;39.564;2.628;2022-11-15T15:50:29;6.40;;;2.30;;
74670;SDS011;63196;39.564;2.628;2022-11-15T15:52:55;9.80;;;3.20;;
74670;SDS011;63196;39.564;2.628;2022-11-15T15:55:21;17.50;;;4.10;;
74670;SDS011;63196;39.564;2.628;2022-11-15T15:57:47;10.40;;;2.60;;
74670;SDS011;63196;39.564;2.628;2022-11-15T16:00:13;6.20;;;2.10;;
74670;SDS011;63196;39.564;2.628;2022-11-15T16:02:39;10.00;;;2.80;;
74670;SDS011;63196;39.564;2.628;2022-11-15T16:05:04;12.80;;;4.30;;
74670;SDS011;63196;39.564;2.628;2022-11-15T16:07:29;7.70;;;2.60;;
74670;SDS011;63196;39.564;2.628;2022-11-15T16:09:55;5.90;;;3.30;;
74670;SDS011;63196;39.564;2.628;2022-11-15T16:12:27;10.80;;;3.80;;
74670;SDS011;63196;39.564;2.628;2022-11-15T16:14:53;6.70;;;3.30;;
74670;SDS011;63196;39.564;2.628;2022-11-15T16:17:19;11.40;;;3.50;;
74670;SDS011;63196;39.564;2.628;2022-11-15T16:19:45;10.00;;;3.30;;
74670;SDS011;63196;39.564;2.628;2022-11-15T16:22:10;14.20;;;4.50;;
74670;SDS011;63196;39.564;2.628;2022-11-15T16:24:35;8.50;;;3.30;;
74670;SDS011;63196;39.564;2.628;2022-11-15T16:27:01;8.20;;;2.90;;
74670;SDS011;63196;39.564;2.628;2022-11-15T16:29:26;11.60;;;3.00;;
74670;SDS011;63196;39.564;2.628;2022-11-15T16:31:54;11.00;;;3.70;;
74670;SDS011;63196;39.564;2.628;2022-11-15T16:34:19;9.60;;;3.00;;
74670;SDS011;63196;39.564;2.628;2022-11-15T16:36:45;12.70;;;3.50;;
74670;SDS011;63196;39.564;2.628;2022-11-15T16:39:11;10.30;;;4.10;;
74670;SDS011;63196;39.564;2.628;2022-11-15T16:41:38;13.90;;;5.00;;
74670;SDS011;63196;39.564;2.628;2022-11-15T16:44:03;13.10;;;3.80;;
74670;SDS011;63196;39.564;2.628;2022-11-15T16:46:28;10.60;;;3.60;;
74670;SDS011;63196;39.564;2.628;2022-11-15T16:48:54;15.10;;;4.50;;
74670;SDS011;63196;39.564;2.628;2022-11-15T16:51:19;13.60;;;4.10;;
74670;SDS011;63196;39.564;2.628;2022-11-15T16:53:45;8.20;;;2.20;;
74670;SDS011;63196;39.564;2.628;2022-11-15T16:56:27;7.90;;;3.50;;
74670;SDS011;63196;39.564;2.628;2022-11-15T16:58:53;10.60;;;3.60;;
74670;SDS011;63196;39.564;2.628;2022-11-15T17:01:31;8.20;;;3.60;;
74670;SDS011;63196;39.564;2.628;2022-11-15T17:03:56;10.70;;;3.40;;
74670;SDS011;63196;39.564;2.628;2022-11-15T17:06:22;6.70;;;3.10;;
74670;SDS011;63196;39.564;2.628;2022-11-15T17:08:48;9.70;;;3.50;;
74670;SDS011;63196;39.564;2.628;2022-11-15T17:11:15;14.70;;;3.40;;